PAEN/ENA METAR and TAF weather

Enter ICAO airport designator
Station Type Date Time Source
PAEN METAR 2020/01/26 18:53 UTC NOAA

PAEN 261853Z 02004KT 10SM CLR M31/M33 A2933 RMK AO2 SLP937 T13061333


Station Type Date Time Source
PAEN Decoded METAR 2020/01/26 18:53 UTC NOAA

KENAI MUNICIPAL AIRPORT, AK, United States (PAEN) 60-35N 151-14W 25M
Jan 26, 2020 - 01:53 PM EST / 2020.01.26 1853 UTC
Wind: from the NNE (020 degrees) at 5 MPH (4 KT):0
Visibility: 10 mile(s):0
Sky conditions: clear
Temperature: -23.1 F (-30.6 C)
Windchill: -38 F (-39 C):2
Dew Point: -27.9 F (-33.3 C)
Relative Humidity: 77%
Pressure (altimeter): 29.33 in. Hg (993 hPa)
ob: PAEN 261853Z 02004KT 10SM CLR M31/M33 A2933 RMK AO2 SLP937 T13061333
cycle: 19

Station Type Date Time Source
PAEN TAF 2020/01/26 18:22 UTC NOAA

TAF PAEN 261720Z 2618/2718 02007KT P6SM SKC

Example: see airport list